sensor_id;sensor_type;location;lat;lon;timestamp;P1;durP1;ratioP1;P2;durP2;ratioP2
8048;SDS011;20935;42.660;23.342;2022-08-21T00:00:41;18.93;;;16.07;;
8048;SDS011;20935;42.660;23.342;2022-08-21T00:03:08;21.93;;;15.47;;
8048;SDS011;20935;42.660;23.342;2022-08-21T00:05:38;19.83;;;15.27;;
8048;SDS011;20935;42.660;23.342;2022-08-21T00:08:04;21.57;;;15.53;;
8048;SDS011;20935;42.660;23.342;2022-08-21T00:10:29;21.83;;;15.47;;
8048;SDS011;20935;42.660;23.342;2022-08-21T00:12:55;20.40;;;15.33;;
8048;SDS011;20935;42.660;23.342;2022-08-21T00:15:22;20.77;;;14.10;;
8048;SDS011;20935;42.660;23.342;2022-08-21T00:17:48;20.03;;;15.23;;
8048;SDS011;20935;42.660;23.342;2022-08-21T00:20:14;20.90;;;14.60;;
8048;SDS011;20935;42.660;23.342;2022-08-21T00:22:40;24.93;;;14.37;;
8048;SDS011;20935;42.660;23.342;2022-08-21T00:25:06;18.60;;;13.90;;
8048;SDS011;20935;42.660;23.342;2022-08-21T00:27:31;24.40;;;15.83;;
8048;SDS011;20935;42.660;23.342;2022-08-21T00:29:57;22.23;;;14.70;;
8048;SDS011;20935;42.660;23.342;2022-08-21T00:32:23;20.23;;;15.50;;
8048;SDS011;20935;42.660;23.342;2022-08-21T00:34:48;19.23;;;13.43;;
8048;SDS011;20935;42.660;23.342;2022-08-21T00:37:14;17.13;;;13.80;;
8048;SDS011;20935;42.660;23.342;2022-08-21T00:39:39;18.20;;;13.70;;
8048;SDS011;20935;42.660;23.342;2022-08-21T00:42:04;17.43;;;13.60;;
8048;SDS011;20935;42.660;23.342;2022-08-21T00:44:30;17.30;;;13.90;;
8048;SDS011;20935;42.660;23.342;2022-08-21T00:46:56;20.33;;;14.67;;
8048;SDS011;20935;42.660;23.342;2022-08-21T00:49:22;19.27;;;14.53;;
8048;SDS011;20935;42.660;23.342;2022-08-21T00:51:55;18.17;;;13.87;;
8048;SDS011;20935;42.660;23.342;2022-08-21T00:54:24;22.73;;;15.33;;
8048;SDS011;20935;42.660;23.342;2022-08-21T00:56:52;24.33;;;15.60;;
8048;SDS011;20935;42.660;23.342;2022-08-21T00:59:18;23.87;;;16.87;;
8048;SDS011;20935;42.660;23.342;2022-08-21T01:01:44;21.27;;;16.50;;
8048;SDS011;20935;42.660;23.342;2022-08-21T01:04:09;24.90;;;16.50;;
8048;SDS011;20935;42.660;23.342;2022-08-21T01:06:35;20.77;;;15.67;;
8048;SDS011;20935;42.660;23.342;2022-08-21T01:09:00;27.47;;;18.33;;
8048;SDS011;20935;42.660;23.342;2022-08-21T01:11:25;28.57;;;18.53;;
8048;SDS011;20935;42.660;23.342;2022-08-21T01:13:51;25.70;;;18.50;;
8048;SDS011;20935;42.660;23.342;2022-08-21T01:16:17;28.03;;;19.70;;
8048;SDS011;20935;42.660;23.342;2022-08-21T01:18:44;27.30;;;20.03;;
8048;SDS011;20935;42.660;23.342;2022-08-21T01:21:11;24.37;;;18.33;;
8048;SDS011;20935;42.660;23.342;2022-08-21T01:23:37;28.70;;;19.47;;
8048;SDS011;20935;42.660;23.342;2022-08-21T01:26:03;28.27;;;18.83;;
8048;SDS011;20935;42.660;23.342;2022-08-21T01:28:29;27.63;;;20.17;;
8048;SDS011;20935;42.660;23.342;2022-08-21T01:30:56;26.63;;;18.80;;
8048;SDS011;20935;42.660;23.342;2022-08-21T01:33:22;27.40;;;19.17;;
8048;SDS011;20935;42.660;23.342;2022-08-21T01:35:49;31.03;;;19.43;;
8048;SDS011;20935;42.660;23.342;2022-08-21T01:38:14;24.77;;;17.53;;
8048;SDS011;20935;42.660;23.342;2022-08-21T01:40:40;22.13;;;16.67;;
8048;SDS011;20935;42.660;23.342;2022-08-21T01:43:05;22.87;;;17.03;;
8048;SDS011;20935;42.660;23.342;2022-08-21T01:45:30;24.57;;;17.77;;
8048;SDS011;20935;42.660;23.342;2022-08-21T01:47:56;22.53;;;16.87;;
8048;SDS011;20935;42.660;23.342;2022-08-21T01:50:21;22.60;;;15.80;;
8048;SDS011;20935;42.660;23.342;2022-08-21T01:52:47;19.27;;;14.40;;
8048;SDS011;20935;42.660;23.342;2022-08-21T01:55:13;16.30;;;12.70;;
8048;SDS011;20935;42.660;23.342;2022-08-21T01:57:38;17.93;;;13.47;;
8048;SDS011;20935;42.660;23.342;2022-08-21T02:00:05;17.00;;;12.93;;
8048;SDS011;20935;42.660;23.342;2022-08-21T02:02:30;22.20;;;14.00;;
8048;SDS011;20935;42.660;23.342;2022-08-21T02:04:56;16.77;;;13.00;;
8048;SDS011;20935;42.660;23.342;2022-08-21T02:07:21;18.80;;;13.87;;
8048;SDS011;20935;42.660;23.342;2022-08-21T02:09:46;22.80;;;13.23;;
8048;SDS011;20935;42.660;23.342;2022-08-21T02:12:12;14.83;;;11.03;;
8048;SDS011;20935;42.660;23.342;2022-08-21T02:14:37;16.73;;;9.47;;
8048;SDS011;20935;42.660;23.342;2022-08-21T02:17:03;16.13;;;10.93;;
8048;SDS011;20935;42.660;23.342;2022-08-21T02:19:28;16.13;;;11.50;;
8048;SDS011;20935;42.660;23.342;2022-08-21T02:21:54;15.73;;;12.17;;
8048;SDS011;20935;42.660;23.342;2022-08-21T02:24:19;20.00;;;12.87;;
8048;SDS011;20935;42.660;23.342;2022-08-21T02:26:44;20.03;;;12.93;;
8048;SDS011;20935;42.660;23.342;2022-08-21T02:29:10;17.67;;;12.50;;
8048;SDS011;20935;42.660;23.342;2022-08-21T02:31:35;22.27;;;13.30;;
8048;SDS011;20935;42.660;23.342;2022-08-21T02:34:00;16.53;;;11.27;;
8048;SDS011;20935;42.660;23.342;2022-08-21T02:36:26;14.67;;;11.77;;
8048;SDS011;20935;42.660;23.342;2022-08-21T02:38:51;25.97;;;16.33;;
8048;SDS011;20935;42.660;23.342;2022-08-21T02:41:17;24.00;;;16.07;;
8048;SDS011;20935;42.660;23.342;2022-08-21T02:43:43;17.60;;;13.60;;
8048;SDS011;20935;42.660;23.342;2022-08-21T02:46:09;23.43;;;14.47;;
8048;SDS011;20935;42.660;23.342;2022-08-21T02:48:35;16.87;;;12.87;;
8048;SDS011;20935;42.660;23.342;2022-08-21T02:51:02;25.60;;;16.20;;
8048;SDS011;20935;42.660;23.342;2022-08-21T02:53:28;20.47;;;13.93;;
8048;SDS011;20935;42.660;23.342;2022-08-21T02:55:54;20.40;;;13.67;;
8048;SDS011;20935;42.660;23.342;2022-08-21T02:58:22;17.90;;;13.53;;
8048;SDS011;20935;42.660;23.342;2022-08-21T03:00:48;18.27;;;14.33;;
8048;SDS011;20935;42.660;23.342;2022-08-21T03:03:14;25.03;;;15.03;;
8048;SDS011;20935;42.660;23.342;2022-08-21T03:05:39;23.20;;;16.60;;
8048;SDS011;20935;42.660;23.342;2022-08-21T03:08:07;21.90;;;14.47;;
8048;SDS011;20935;42.660;23.342;2022-08-21T03:10:36;24.73;;;17.37;;
8048;SDS011;20935;42.660;23.342;2022-08-21T03:13:01;24.83;;;16.00;;
8048;SDS011;20935;42.660;23.342;2022-08-21T03:15:28;19.97;;;14.33;;
8048;SDS011;20935;42.660;23.342;2022-08-21T03:17:53;19.30;;;13.70;;
8048;SDS011;20935;42.660;23.342;2022-08-21T03:20:20;16.40;;;13.00;;
8048;SDS011;20935;42.660;23.342;2022-08-21T03:22:47;20.47;;;12.80;;
8048;SDS011;20935;42.660;23.342;2022-08-21T03:25:12;21.87;;;13.27;;
8048;SDS011;20935;42.660;23.342;2022-08-21T03:27:37;17.30;;;13.10;;
8048;SDS011;20935;42.660;23.342;2022-08-21T03:30:04;18.47;;;11.70;;
8048;SDS011;20935;42.660;23.342;2022-08-21T03:32:29;16.63;;;11.67;;
8048;SDS011;20935;42.660;23.342;2022-08-21T03:34:56;15.90;;;10.47;;
8048;SDS011;20935;42.660;23.342;2022-08-21T03:37:21;15.77;;;10.00;;
8048;SDS011;20935;42.660;23.342;2022-08-21T03:39:47;13.93;;;11.27;;
8048;SDS011;20935;42.660;23.342;2022-08-21T03:42:12;15.73;;;11.83;;
8048;SDS011;20935;42.660;23.342;2022-08-21T03:44:37;16.73;;;12.67;;
8048;SDS011;20935;42.660;23.342;2022-08-21T03:47:04;13.47;;;11.00;;
8048;SDS011;20935;42.660;23.342;2022-08-21T03:49:30;14.53;;;10.83;;
8048;SDS011;20935;42.660;23.342;2022-08-21T03:51:55;15.60;;;9.80;;
8048;SDS011;20935;42.660;23.342;2022-08-21T03:54:20;13.87;;;9.03;;
8048;SDS011;20935;42.660;23.342;2022-08-21T03:56:46;13.03;;;9.07;;
8048;SDS011;20935;42.660;23.342;2022-08-21T03:59:11;11.23;;;7.20;;
8048;SDS011;20935;42.660;23.342;2022-08-21T04:01:37;9.30;;;6.57;;
8048;SDS011;20935;42.660;23.342;2022-08-21T04:04:04;12.13;;;6.73;;
8048;SDS011;20935;42.660;23.342;2022-08-21T04:06:29;7.90;;;6.20;;
8048;SDS011;20935;42.660;23.342;2022-08-21T04:08:55;8.43;;;6.30;;
8048;SDS011;20935;42.660;23.342;2022-08-21T04:11:23;10.23;;;6.03;;
8048;SDS011;20935;42.660;23.342;2022-08-21T04:13:48;9.90;;;6.63;;
8048;SDS011;20935;42.660;23.342;2022-08-21T04:16:14;14.27;;;7.87;;
8048;SDS011;20935;42.660;23.342;2022-08-21T04:18:39;12.00;;;7.83;;
8048;SDS011;20935;42.660;23.342;2022-08-21T04:21:04;13.63;;;8.50;;
8048;SDS011;20935;42.660;23.342;2022-08-21T04:23:30;14.07;;;8.70;;
8048;SDS011;20935;42.660;23.342;2022-08-21T04:25:56;11.93;;;8.93;;
8048;SDS011;20935;42.660;23.342;2022-08-21T04:28:22;13.00;;;9.37;;
8048;SDS011;20935;42.660;23.342;2022-08-21T04:30:48;13.63;;;9.17;;
8048;SDS011;20935;42.660;23.342;2022-08-21T04:33:15;14.77;;;10.03;;
8048;SDS011;20935;42.660;23.342;2022-08-21T04:35:40;12.10;;;10.20;;
8048;SDS011;20935;42.660;23.342;2022-08-21T04:38:07;13.50;;;8.97;;
8048;SDS011;20935;42.660;23.342;2022-08-21T04:40:32;17.30;;;9.43;;
8048;SDS011;20935;42.660;23.342;2022-08-21T04:43:00;16.23;;;9.50;;
8048;SDS011;20935;42.660;23.342;2022-08-21T04:45:33;11.80;;;9.13;;
8048;SDS011;20935;42.660;23.342;2022-08-21T04:47:59;13.80;;;9.20;;
8048;SDS011;20935;42.660;23.342;2022-08-21T04:50:36;13.70;;;9.97;;
8048;SDS011;20935;42.660;23.342;2022-08-21T04:53:07;12.63;;;9.77;;
8048;SDS011;20935;42.660;23.342;2022-08-21T04:55:33;14.57;;;10.50;;
8048;SDS011;20935;42.660;23.342;2022-08-21T04:57:59;10.47;;;8.93;;
8048;SDS011;20935;42.660;23.342;2022-08-21T05:00:24;12.97;;;10.30;;
8048;SDS011;20935;42.660;23.342;2022-08-21T05:02:50;11.83;;;10.33;;
8048;SDS011;20935;42.660;23.342;2022-08-21T05:05:19;13.67;;;11.43;;
8048;SDS011;20935;42.660;23.342;2022-08-21T05:07:44;14.50;;;10.70;;
8048;SDS011;20935;42.660;23.342;2022-08-21T05:10:10;13.30;;;10.50;;
8048;SDS011;20935;42.660;23.342;2022-08-21T05:12:35;15.03;;;9.83;;
8048;SDS011;20935;42.660;23.342;2022-08-21T05:15:01;11.57;;;9.43;;
8048;SDS011;20935;42.660;23.342;2022-08-21T05:17:26;11.07;;;9.07;;
8048;SDS011;20935;42.660;23.342;2022-08-21T05:19:52;10.53;;;8.40;;
8048;SDS011;20935;42.660;23.342;2022-08-21T05:22:23;9.90;;;7.13;;
8048;SDS011;20935;42.660;23.342;2022-08-21T05:24:49;8.70;;;7.07;;
8048;SDS011;20935;42.660;23.342;2022-08-21T05:27:14;9.43;;;8.03;;
8048;SDS011;20935;42.660;23.342;2022-08-21T05:29:40;9.90;;;7.43;;
8048;SDS011;20935;42.660;23.342;2022-08-21T05:32:09;11.00;;;7.30;;
8048;SDS011;20935;42.660;23.342;2022-08-21T05:34:34;11.00;;;6.73;;
8048;SDS011;20935;42.660;23.342;2022-08-21T05:37:00;6.10;;;4.40;;
8048;SDS011;20935;42.660;23.342;2022-08-21T05:39:25;8.73;;;4.97;;
8048;SDS011;20935;42.660;23.342;2022-08-21T05:41:50;5.77;;;4.43;;
8048;SDS011;20935;42.660;23.342;2022-08-21T05:44:16;6.40;;;4.33;;
8048;SDS011;20935;42.660;23.342;2022-08-21T05:46:41;7.73;;;4.47;;
8048;SDS011;20935;42.660;23.342;2022-08-21T05:49:06;7.23;;;4.80;;
8048;SDS011;20935;42.660;23.342;2022-08-21T05:51:32;7.73;;;4.67;;
8048;SDS011;20935;42.660;23.342;2022-08-21T05:53:57;8.13;;;5.37;;
8048;SDS011;20935;42.660;23.342;2022-08-21T05:56:22;5.73;;;4.20;;
8048;SDS011;20935;42.660;23.342;2022-08-21T05:58:48;6.07;;;4.33;;
8048;SDS011;20935;42.660;23.342;2022-08-21T06:01:13;4.50;;;4.07;;
8048;SDS011;20935;42.660;23.342;2022-08-21T06:03:40;7.47;;;4.37;;
8048;SDS011;20935;42.660;23.342;2022-08-21T06:06:06;6.90;;;5.00;;
8048;SDS011;20935;42.660;23.342;2022-08-21T06:08:31;7.27;;;4.60;;
8048;SDS011;20935;42.660;23.342;2022-08-21T06:10:57;10.33;;;5.43;;
8048;SDS011;20935;42.660;23.342;2022-08-21T06:13:23;12.47;;;4.97;;
8048;SDS011;20935;42.660;23.342;2022-08-21T06:15:49;6.37;;;5.17;;
8048;SDS011;20935;42.660;23.342;2022-08-21T06:18:15;10.27;;;6.80;;
8048;SDS011;20935;42.660;23.342;2022-08-21T06:20:40;9.93;;;7.50;;
8048;SDS011;20935;42.660;23.342;2022-08-21T06:23:06;10.57;;;7.50;;
8048;SDS011;20935;42.660;23.342;2022-08-21T06:25:32;10.60;;;7.23;;
8048;SDS011;20935;42.660;23.342;2022-08-21T06:28:01;10.00;;;7.83;;
8048;SDS011;20935;42.660;23.342;2022-08-21T06:30:26;11.03;;;8.43;;
8048;SDS011;20935;42.660;23.342;2022-08-21T06:32:52;10.47;;;9.37;;
8048;SDS011;20935;42.660;23.342;2022-08-21T06:35:17;15.07;;;9.17;;
8048;SDS011;20935;42.660;23.342;2022-08-21T06:37:42;10.93;;;9.70;;
8048;SDS011;20935;42.660;23.342;2022-08-21T06:40:08;11.70;;;9.50;;
8048;SDS011;20935;42.660;23.342;2022-08-21T06:42:33;10.90;;;9.50;;
8048;SDS011;20935;42.660;23.342;2022-08-21T06:44:58;12.80;;;9.57;;
8048;SDS011;20935;42.660;23.342;2022-08-21T06:47:24;14.67;;;10.00;;
8048;SDS011;20935;42.660;23.342;2022-08-21T06:49:49;17.97;;;12.80;;
8048;SDS011;20935;42.660;23.342;2022-08-21T06:52:14;13.27;;;11.23;;
8048;SDS011;20935;42.660;23.342;2022-08-21T06:54:40;12.80;;;9.93;;
8048;SDS011;20935;42.660;23.342;2022-08-21T06:57:05;13.37;;;8.83;;
8048;SDS011;20935;42.660;23.342;2022-08-21T06:59:31;11.87;;;8.50;;
8048;SDS011;20935;42.660;23.342;2022-08-21T07:01:57;10.80;;;8.43;;
8048;SDS011;20935;42.660;23.342;2022-08-21T07:04:22;10.90;;;8.83;;
8048;SDS011;20935;42.660;23.342;2022-08-21T07:06:47;10.70;;;8.60;;
8048;SDS011;20935;42.660;23.342;2022-08-21T07:09:12;10.17;;;7.80;;
8048;SDS011;20935;42.660;23.342;2022-08-21T07:11:38;11.90;;;8.37;;
8048;SDS011;20935;42.660;23.342;2022-08-21T07:14:03;8.47;;;7.67;;
8048;SDS011;20935;42.660;23.342;2022-08-21T07:16:29;11.57;;;7.90;;
8048;SDS011;20935;42.660;23.342;2022-08-21T07:18:54;9.27;;;7.67;;
8048;SDS011;20935;42.660;23.342;2022-08-21T07:21:19;12.17;;;8.47;;
8048;SDS011;20935;42.660;23.342;2022-08-21T07:23:46;10.07;;;7.67;;
8048;SDS011;20935;42.660;23.342;2022-08-21T07:26:12;12.17;;;7.33;;
8048;SDS011;20935;42.660;23.342;2022-08-21T07:28:38;15.43;;;9.67;;
8048;SDS011;20935;42.660;23.342;2022-08-21T07:31:03;12.87;;;8.30;;
8048;SDS011;20935;42.660;23.342;2022-08-21T07:33:30;9.60;;;8.30;;
8048;SDS011;20935;42.660;23.342;2022-08-21T07:35:55;12.00;;;8.97;;
8048;SDS011;20935;42.660;23.342;2022-08-21T07:38:21;10.73;;;7.70;;
8048;SDS011;20935;42.660;23.342;2022-08-21T07:40:47;10.90;;;7.50;;
8048;SDS011;20935;42.660;23.342;2022-08-21T07:43:13;7.73;;;6.93;;
8048;SDS011;20935;42.660;23.342;2022-08-21T07:45:41;8.17;;;6.90;;
8048;SDS011;20935;42.660;23.342;2022-08-21T07:48:07;14.13;;;8.27;;
8048;SDS011;20935;42.660;23.342;2022-08-21T07:50:32;9.73;;;7.53;;
8048;SDS011;20935;42.660;23.342;2022-08-21T07:52:57;12.87;;;7.73;;
8048;SDS011;20935;42.660;23.342;2022-08-21T07:55:23;8.53;;;6.60;;
8048;SDS011;20935;42.660;23.342;2022-08-21T07:57:48;10.87;;;8.40;;
8048;SDS011;20935;42.660;23.342;2022-08-21T08:00:20;11.47;;;8.60;;
8048;SDS011;20935;42.660;23.342;2022-08-21T08:02:47;12.70;;;9.20;;
8048;SDS011;20935;42.660;23.342;2022-08-21T08:05:15;10.53;;;8.37;;
8048;SDS011;20935;42.660;23.342;2022-08-21T08:07:40;11.67;;;9.03;;
8048;SDS011;20935;42.660;23.342;2022-08-21T08:10:07;13.00;;;8.70;;
8048;SDS011;20935;42.660;23.342;2022-08-21T08:12:33;9.63;;;7.80;;
8048;SDS011;20935;42.660;23.342;2022-08-21T08:14:59;10.60;;;7.70;;
8048;SDS011;20935;42.660;23.342;2022-08-21T08:17:25;11.33;;;8.37;;
8048;SDS011;20935;42.660;23.342;2022-08-21T08:19:51;16.87;;;8.43;;
8048;SDS011;20935;42.660;23.342;2022-08-21T08:22:16;12.80;;;9.57;;
8048;SDS011;20935;42.660;23.342;2022-08-21T08:24:44;12.93;;;8.93;;
8048;SDS011;20935;42.660;23.342;2022-08-21T08:27:10;12.33;;;8.90;;
8048;SDS011;20935;42.660;23.342;2022-08-21T08:29:35;12.63;;;9.47;;
8048;SDS011;20935;42.660;23.342;2022-08-21T08:32:00;12.50;;;9.33;;
8048;SDS011;20935;42.660;23.342;2022-08-21T08:34:26;12.97;;;9.13;;
8048;SDS011;20935;42.660;23.342;2022-08-21T08:36:52;12.57;;;10.10;;
8048;SDS011;20935;42.660;23.342;2022-08-21T08:39:17;16.27;;;9.63;;
8048;SDS011;20935;42.660;23.342;2022-08-21T08:41:42;14.73;;;9.47;;
8048;SDS011;20935;42.660;23.342;2022-08-21T08:44:09;14.80;;;9.80;;
8048;SDS011;20935;42.660;23.342;2022-08-21T08:46:43;11.23;;;8.90;;
8048;SDS011;20935;42.660;23.342;2022-08-21T08:49:17;14.60;;;9.83;;
8048;SDS011;20935;42.660;23.342;2022-08-21T08:51:48;14.47;;;9.13;;
8048;SDS011;20935;42.660;23.342;2022-08-21T08:54:17;9.90;;;7.27;;
8048;SDS011;20935;42.660;23.342;2022-08-21T08:56:43;16.20;;;9.03;;
8048;SDS011;20935;42.660;23.342;2022-08-21T08:59:14;10.10;;;8.20;;
8048;SDS011;20935;42.660;23.342;2022-08-21T09:01:40;12.30;;;7.93;;
8048;SDS011;20935;42.660;23.342;2022-08-21T09:04:06;11.27;;;8.03;;
8048;SDS011;20935;42.660;23.342;2022-08-21T09:06:37;10.17;;;8.40;;
8048;SDS011;20935;42.660;23.342;2022-08-21T09:16:47;10.17;;;8.13;;
8048;SDS011;20935;42.660;23.342;2022-08-21T09:29:10;16.33;;;7.63;;
8048;SDS011;20935;42.660;23.342;2022-08-21T09:31:36;9.50;;;6.90;;
8048;SDS011;20935;42.660;23.342;2022-08-21T09:34:07;11.00;;;7.13;;
8048;SDS011;20935;42.660;23.342;2022-08-21T09:36:51;8.90;;;6.83;;
8048;SDS011;20935;42.660;23.342;2022-08-21T09:39:25;9.70;;;6.73;;
8048;SDS011;20935;42.660;23.342;2022-08-21T09:41:58;8.27;;;6.60;;
8048;SDS011;20935;42.660;23.342;2022-08-21T09:44:24;9.83;;;7.07;;
8048;SDS011;20935;42.660;23.342;2022-08-21T09:46:50;9.00;;;7.57;;
8048;SDS011;20935;42.660;23.342;2022-08-21T09:49:25;9.47;;;7.10;;
8048;SDS011;20935;42.660;23.342;2022-08-21T09:51:51;11.57;;;6.80;;
8048;SDS011;20935;42.660;23.342;2022-08-21T09:54:19;8.63;;;6.93;;
8048;SDS011;20935;42.660;23.342;2022-08-21T09:56:57;12.73;;;6.63;;
8048;SDS011;20935;42.660;23.342;2022-08-21T09:59:41;11.07;;;7.87;;
8048;SDS011;20935;42.660;23.342;2022-08-21T10:02:23;10.83;;;7.57;;
8048;SDS011;20935;42.660;23.342;2022-08-21T10:04:53;8.77;;;6.67;;
8048;SDS011;20935;42.660;23.342;2022-08-21T10:07:20;9.80;;;6.43;;
8048;SDS011;20935;42.660;23.342;2022-08-21T10:09:45;8.87;;;6.90;;
8048;SDS011;20935;42.660;23.342;2022-08-21T10:12:16;9.83;;;6.60;;
8048;SDS011;20935;42.660;23.342;2022-08-21T10:14:54;11.07;;;6.00;;
8048;SDS011;20935;42.660;23.342;2022-08-21T10:17:27;8.47;;;5.80;;
8048;SDS011;20935;42.660;23.342;2022-08-21T10:19:59;9.63;;;6.30;;
8048;SDS011;20935;42.660;23.342;2022-08-21T10:25:07;10.67;;;6.80;;
8048;SDS011;20935;42.660;23.342;2022-08-21T10:30:00;9.70;;;6.57;;
8048;SDS011;20935;42.660;23.342;2022-08-21T10:35:35;10.60;;;6.53;;
8048;SDS011;20935;42.660;23.342;2022-08-21T10:38:32;9.37;;;5.97;;
8048;SDS011;20935;42.660;23.342;2022-08-21T10:41:00;9.37;;;6.13;;
8048;SDS011;20935;42.660;23.342;2022-08-21T10:43:39;9.83;;;6.47;;
8048;SDS011;20935;42.660;23.342;2022-08-21T10:46:17;11.47;;;6.60;;
8048;SDS011;20935;42.660;23.342;2022-08-21T10:56:29;10.33;;;6.40;;
8048;SDS011;20935;42.660;23.342;2022-08-21T11:04:09;9.83;;;6.57;;
8048;SDS011;20935;42.660;23.342;2022-08-21T11:06:35;8.43;;;6.57;;
8048;SDS011;20935;42.660;23.342;2022-08-21T11:09:12;8.50;;;5.83;;
8048;SDS011;20935;42.660;23.342;2022-08-21T11:11:44;8.37;;;5.80;;
8048;SDS011;20935;42.660;23.342;2022-08-21T11:14:30;7.73;;;5.50;;
8048;SDS011;20935;42.660;23.342;2022-08-21T11:19:28;7.87;;;5.10;;
8048;SDS011;20935;42.660;23.342;2022-08-21T11:22:00;8.70;;;5.20;;
8048;SDS011;20935;42.660;23.342;2022-08-21T11:29:49;8.63;;;5.50;;
8048;SDS011;20935;42.660;23.342;2022-08-21T11:32:27;6.83;;;5.43;;
8048;SDS011;20935;42.660;23.342;2022-08-21T11:40:03;8.20;;;5.90;;
8048;SDS011;20935;42.660;23.342;2022-08-21T11:42:40;7.03;;;5.40;;
8048;SDS011;20935;42.660;23.342;2022-08-21T12:02:45;7.90;;;4.80;;
8048;SDS011;20935;42.660;23.342;2022-08-21T12:05:22;6.07;;;5.03;;
8048;SDS011;20935;42.660;23.342;2022-08-21T12:07:48;10.20;;;5.37;;
8048;SDS011;20935;42.660;23.342;2022-08-21T12:10:14;7.73;;;5.47;;
8048;SDS011;20935;42.660;23.342;2022-08-21T12:12:41;6.27;;;4.80;;
8048;SDS011;20935;42.660;23.342;2022-08-21T12:17:51;7.63;;;5.93;;
8048;SDS011;20935;42.660;23.342;2022-08-21T12:20:18;8.20;;;5.33;;
8048;SDS011;20935;42.660;23.342;2022-08-21T12:22:52;8.03;;;5.47;;
8048;SDS011;20935;42.660;23.342;2022-08-21T12:25:19;7.60;;;5.40;;
8048;SDS011;20935;42.660;23.342;2022-08-21T12:27:46;6.13;;;5.47;;
8048;SDS011;20935;42.660;23.342;2022-08-21T12:30:23;7.63;;;5.30;;
8048;SDS011;20935;42.660;23.342;2022-08-21T12:33:51;8.77;;;6.00;;
8048;SDS011;20935;42.660;23.342;2022-08-21T12:35:43;8.40;;;5.23;;
8048;SDS011;20935;42.660;23.342;2022-08-21T12:41:20;6.13;;;5.53;;
8048;SDS011;20935;42.660;23.342;2022-08-21T12:43:50;6.23;;;5.53;;
8048;SDS011;20935;42.660;23.342;2022-08-21T12:46:18;7.70;;;5.47;;
8048;SDS011;20935;42.660;23.342;2022-08-21T12:48:47;8.05;;;5.88;;
8048;SDS011;20935;42.660;23.342;2022-08-21T12:51:15;9.03;;;5.33;;
8048;SDS011;20935;42.660;23.342;2022-08-21T12:53:48;7.80;;;5.20;;
8048;SDS011;20935;42.660;23.342;2022-08-21T12:56:15;6.33;;;5.37;;
8048;SDS011;20935;42.660;23.342;2022-08-21T12:58:44;7.87;;;5.47;;
8048;SDS011;20935;42.660;23.342;2022-08-21T13:01:19;9.40;;;5.63;;
8048;SDS011;20935;42.660;23.342;2022-08-21T13:03:46;6.10;;;5.23;;
8048;SDS011;20935;42.660;23.342;2022-08-21T13:06:15;8.67;;;5.50;;
8048;SDS011;20935;42.660;23.342;2022-08-21T13:08:42;6.10;;;5.50;;
8048;SDS011;20935;42.660;23.342;2022-08-21T13:11:08;7.43;;;5.65;;
8048;SDS011;20935;42.660;23.342;2022-08-21T13:13:34;6.23;;;5.27;;
8048;SDS011;20935;42.660;23.342;2022-08-21T13:16:04;5.97;;;5.37;;
8048;SDS011;20935;42.660;23.342;2022-08-21T13:18:31;6.90;;;5.27;;
8048;SDS011;20935;42.660;23.342;2022-08-21T13:21:11;7.30;;;5.10;;
8048;SDS011;20935;42.660;23.342;2022-08-21T13:23:36;8.53;;;5.57;;
8048;SDS011;20935;42.660;23.342;2022-08-21T13:26:11;6.33;;;4.97;;
8048;SDS011;20935;42.660;23.342;2022-08-21T13:28:37;5.97;;;5.37;;
8048;SDS011;20935;42.660;23.342;2022-08-21T13:31:05;6.63;;;5.60;;
8048;SDS011;20935;42.660;23.342;2022-08-21T13:33:31;6.10;;;4.00;;
8048;SDS011;20935;42.660;23.342;2022-08-21T13:36:01;6.30;;;4.27;;
8048;SDS011;20935;42.660;23.342;2022-08-21T13:38:30;5.90;;;5.17;;
8048;SDS011;20935;42.660;23.342;2022-08-21T13:41:57;8.83;;;5.10;;
8048;SDS011;20935;42.660;23.342;2022-08-21T13:44:00;7.70;;;5.10;;
8048;SDS011;20935;42.660;23.342;2022-08-21T13:46:28;8.60;;;5.67;;
8048;SDS011;20935;42.660;23.342;2022-08-21T13:48:54;7.23;;;5.70;;
8048;SDS011;20935;42.660;23.342;2022-08-21T13:51:20;8.07;;;5.17;;
8048;SDS011;20935;42.660;23.342;2022-08-21T13:53:46;6.73;;;5.50;;
8048;SDS011;20935;42.660;23.342;2022-08-21T13:56:23;9.73;;;5.03;;
8048;SDS011;20935;42.660;23.342;2022-08-21T13:58:49;7.73;;;5.60;;
8048;SDS011;20935;42.660;23.342;2022-08-21T14:01:18;9.30;;;5.37;;
8048;SDS011;20935;42.660;23.342;2022-08-21T14:03:44;7.50;;;5.37;;
8048;SDS011;20935;42.660;23.342;2022-08-21T14:06:11;6.93;;;5.43;;
8048;SDS011;20935;42.660;23.342;2022-08-21T14:08:37;7.10;;;5.67;;
8048;SDS011;20935;42.660;23.342;2022-08-21T14:11:04;6.47;;;5.20;;
8048;SDS011;20935;42.660;23.342;2022-08-21T14:16:02;7.30;;;5.60;;
8048;SDS011;20935;42.660;23.342;2022-08-21T14:18:28;6.27;;;5.40;;
8048;SDS011;20935;42.660;23.342;2022-08-21T14:21:03;10.93;;;5.40;;
8048;SDS011;20935;42.660;23.342;2022-08-21T14:23:29;8.77;;;6.73;;
8048;SDS011;20935;42.660;23.342;2022-08-21T14:25:54;7.43;;;6.10;;
8048;SDS011;20935;42.660;23.342;2022-08-21T14:28:24;7.17;;;6.00;;
8048;SDS011;20935;42.660;23.342;2022-08-21T14:30:51;6.90;;;5.90;;
8048;SDS011;20935;42.660;23.342;2022-08-21T14:33:25;7.10;;;5.43;;
8048;SDS011;20935;42.660;23.342;2022-08-21T14:35:51;8.23;;;6.03;;
8048;SDS011;20935;42.660;23.342;2022-08-21T14:38:18;8.93;;;5.73;;
8048;SDS011;20935;42.660;23.342;2022-08-21T14:40:45;10.53;;;5.90;;
8048;SDS011;20935;42.660;23.342;2022-08-21T14:43:11;9.27;;;6.10;;
8048;SDS011;20935;42.660;23.342;2022-08-21T14:45:37;6.70;;;5.90;;
8048;SDS011;20935;42.660;23.342;2022-08-21T14:48:05;9.77;;;6.00;;
8048;SDS011;20935;42.660;23.342;2022-08-21T14:50:31;8.10;;;6.27;;
8048;SDS011;20935;42.660;23.342;2022-08-21T14:52:56;7.27;;;6.13;;
8048;SDS011;20935;42.660;23.342;2022-08-21T14:55:21;7.23;;;6.20;;
8048;SDS011;20935;42.660;23.342;2022-08-21T14:57:48;8.40;;;5.17;;
8048;SDS011;20935;42.660;23.342;2022-08-21T15:00:14;7.70;;;5.80;;
8048;SDS011;20935;42.660;23.342;2022-08-21T15:02:41;9.37;;;5.77;;
8048;SDS011;20935;42.660;23.342;2022-08-21T15:05:07;7.60;;;5.73;;
8048;SDS011;20935;42.660;23.342;2022-08-21T15:07:32;7.40;;;6.40;;
8048;SDS011;20935;42.660;23.342;2022-08-21T15:09:58;8.87;;;5.77;;
8048;SDS011;20935;42.660;23.342;2022-08-21T15:12:23;7.70;;;5.87;;
8048;SDS011;20935;42.660;23.342;2022-08-21T15:14:49;7.17;;;5.50;;
8048;SDS011;20935;42.660;23.342;2022-08-21T15:17:15;7.53;;;5.40;;
8048;SDS011;20935;42.660;23.342;2022-08-21T15:19:40;7.43;;;5.87;;
8048;SDS011;20935;42.660;23.342;2022-08-21T15:22:06;8.77;;;5.83;;
8048;SDS011;20935;42.660;23.342;2022-08-21T15:24:31;9.50;;;5.77;;
8048;SDS011;20935;42.660;23.342;2022-08-21T15:26:58;7.73;;;5.90;;
8048;SDS011;20935;42.660;23.342;2022-08-21T15:29:24;8.20;;;6.20;;
8048;SDS011;20935;42.660;23.342;2022-08-21T15:31:51;10.23;;;6.20;;
8048;SDS011;20935;42.660;23.342;2022-08-21T15:34:17;6.83;;;6.17;;
8048;SDS011;20935;42.660;23.342;2022-08-21T15:36:42;11.13;;;6.53;;
8048;SDS011;20935;42.660;23.342;2022-08-21T15:39:08;10.57;;;6.00;;
8048;SDS011;20935;42.660;23.342;2022-08-21T15:41:33;11.33;;;6.67;;
8048;SDS011;20935;42.660;23.342;2022-08-21T15:43:58;8.47;;;6.20;;
8048;SDS011;20935;42.660;23.342;2022-08-21T15:46:23;9.23;;;6.37;;
8048;SDS011;20935;42.660;23.342;2022-08-21T15:48:49;8.73;;;5.90;;
8048;SDS011;20935;42.660;23.342;2022-08-21T15:51:14;9.10;;;5.70;;
8048;SDS011;20935;42.660;23.342;2022-08-21T15:53:40;8.37;;;6.27;;